createdAt,value
2019-03-20T00:00:47.697Z,22.22
2019-03-20T00:01:47.649Z,22.22
2019-03-20T00:02:47.643Z,22.22
2019-03-20T00:03:47.628Z,22.14
2019-03-20T00:04:50.027Z,22.22
2019-03-20T00:05:47.609Z,22.25
2019-03-20T00:06:47.620Z,22.22
2019-03-20T00:07:47.592Z,22.23
2019-03-20T00:08:47.568Z,22.30
2019-03-20T00:09:47.562Z,22.33
2019-03-20T00:10:53.646Z,22.14
2019-03-20T00:11:47.543Z,22.33
2019-03-20T00:12:47.541Z,22.33
2019-03-20T00:13:47.517Z,22.26
2019-03-20T00:14:47.506Z,22.29
2019-03-20T00:15:47.489Z,22.13
2019-03-20T00:16:47.478Z,22.25
2019-03-20T00:17:47.510Z,22.35
2019-03-20T00:18:47.455Z,22.23
2019-03-20T00:19:47.449Z,22.18
2019-03-20T00:20:47.435Z,22.23
2019-03-20T00:21:47.426Z,22.23
2019-03-20T00:22:47.408Z,22.23
2019-03-20T00:23:47.435Z,22.28
2019-03-20T00:24:47.387Z,22.18
2019-03-20T00:25:47.371Z,22.18
2019-03-20T00:26:47.367Z,22.11
2019-03-20T00:27:47.357Z,22.25
2019-03-20T00:28:47.347Z,22.18
2019-03-20T00:29:47.334Z,22.18
2019-03-20T00:30:47.321Z,22.14
2019-03-20T00:31:47.303Z,22.22
2019-03-20T00:32:47.291Z,22.22
2019-03-20T00:33:47.287Z,22.20
2019-03-20T00:34:47.282Z,22.15
2019-03-20T00:35:47.294Z,22.25
2019-03-20T00:36:47.295Z,22.22
2019-03-20T00:37:47.236Z,22.23
2019-03-20T00:38:47.231Z,22.18
2019-03-20T00:39:47.213Z,22.22
2019-03-20T00:40:47.199Z,22.22
2019-03-20T00:41:47.228Z,22.18
2019-03-20T00:42:53.274Z,22.23
2019-03-20T00:43:47.168Z,22.15
2019-03-20T00:44:47.154Z,22.33
2019-03-20T00:45:47.150Z,22.25
2019-03-20T00:46:47.175Z,22.20
2019-03-20T00:47:47.126Z,22.18
2019-03-20T00:48:47.115Z,22.22
2019-03-20T00:49:47.103Z,22.18
2019-03-20T00:50:47.086Z,22.22
2019-03-20T00:51:47.077Z,22.20
2019-03-20T00:52:47.077Z,22.17
2019-03-20T00:53:47.055Z,22.20
2019-03-20T00:54:47.045Z,22.22
2019-03-20T00:55:47.032Z,22.17
2019-03-20T00:56:47.039Z,22.20
2019-03-20T00:57:47.004Z,22.18
2019-03-20T00:58:46.995Z,22.22
2019-03-20T00:59:46.990Z,22.23
2019-03-20T01:00:46.973Z,22.15
2019-03-20T01:01:46.964Z,22.32
2019-03-20T01:02:46.997Z,22.33
2019-03-20T01:03:46.936Z,22.35
2019-03-20T01:04:46.928Z,22.22
2019-03-20T01:05:46.915Z,22.33
2019-03-20T01:06:46.908Z,22.33
2019-03-20T01:07:46.894Z,22.26
2019-03-20T01:08:46.918Z,22.30
2019-03-20T01:09:46.871Z,22.17
2019-03-20T01:10:46.861Z,22.17
2019-03-20T01:11:46.844Z,22.18
2019-03-20T01:12:46.833Z,22.18
2019-03-20T01:13:46.818Z,22.17
2019-03-20T01:14:53.198Z,22.15
2019-03-20T01:15:46.797Z,22.17
2019-03-20T01:16:46.791Z,22.18
2019-03-20T01:17:46.777Z,22.15
2019-03-20T01:18:46.761Z,22.18
2019-03-20T01:19:46.772Z,22.14
2019-03-20T01:20:46.747Z,22.23
2019-03-20T01:21:46.733Z,22.17
2019-03-20T01:22:46.715Z,22.17
2019-03-20T01:23:46.703Z,22.15
2019-03-20T01:24:46.694Z,22.17
2019-03-20T01:25:46.711Z,22.20
2019-03-20T01:26:46.672Z,22.20
2019-03-20T01:27:46.660Z,22.18
2019-03-20T01:28:46.649Z,22.22
2019-03-20T01:29:46.639Z,22.17
2019-03-20T01:30:46.633Z,22.17
2019-03-20T01:31:46.653Z,22.17
2019-03-20T01:32:46.599Z,22.15
2019-03-20T01:33:46.595Z,22.25
2019-03-20T01:34:46.585Z,22.20
2019-03-20T01:35:46.571Z,22.18
2019-03-20T01:36:46.554Z,22.20
2019-03-20T01:37:46.556Z,22.15
2019-03-20T01:38:46.531Z,22.26
2019-03-20T01:39:46.527Z,22.14
2019-03-20T01:40:46.519Z,22.22
2019-03-20T01:41:46.502Z,22.17
2019-03-20T01:42:46.504Z,22.17
2019-03-20T01:43:46.474Z,22.18
2019-03-20T01:44:46.470Z,22.18
2019-03-20T01:45:46.451Z,22.18
2019-03-20T01:46:52.843Z,22.22
2019-03-20T01:47:46.430Z,22.22
2019-03-20T01:48:46.432Z,22.18
2019-03-20T01:49:46.432Z,22.28
2019-03-20T01:50:46.395Z,22.29
2019-03-20T01:51:46.387Z,22.20
2019-03-20T01:52:46.370Z,22.18
2019-03-20T01:53:46.369Z,22.15
2019-03-20T01:54:46.391Z,22.23
2019-03-20T01:55:46.340Z,22.18
2019-03-20T01:56:46.324Z,22.15
2019-03-20T01:57:46.317Z,22.23
2019-03-20T01:58:46.308Z,22.14
2019-03-20T01:59:46.288Z,22.23
2019-03-20T02:00:46.322Z,22.22
2019-03-20T02:01:46.269Z,22.17
2019-03-20T02:02:46.260Z,22.20
2019-03-20T02:03:46.246Z,22.23
2019-03-20T02:04:46.234Z,22.20
2019-03-20T02:05:46.220Z,22.18
2019-03-20T02:06:46.250Z,22.30
2019-03-20T02:07:46.197Z,22.32
2019-03-20T02:08:46.187Z,22.20
2019-03-20T02:09:46.174Z,22.18
2019-03-20T02:10:46.165Z,22.18
2019-03-20T02:11:46.154Z,22.17
2019-03-20T02:12:46.158Z,22.20
2019-03-20T02:13:46.134Z,22.15
2019-03-20T02:14:46.123Z,22.15
2019-03-20T02:15:46.107Z,22.17
2019-03-20T02:16:46.097Z,22.22
2019-03-20T02:17:46.084Z,22.18
2019-03-20T02:18:52.235Z,22.22
2019-03-20T02:19:46.075Z,22.20
2019-03-20T02:20:46.052Z,22.17
2019-03-20T02:21:46.036Z,22.15
2019-03-20T02:22:46.029Z,22.17
2019-03-20T02:23:46.025Z,22.20
2019-03-20T02:24:46.001Z,22.14
2019-03-20T02:25:45.992Z,22.20
2019-03-20T02:26:45.984Z,22.22
2019-03-20T02:27:45.971Z,22.25
2019-03-20T02:28:45.990Z,22.23
2019-03-20T02:29:45.951Z,22.28
2019-03-20T02:30:45.943Z,22.15
2019-03-20T02:31:45.925Z,22.18
2019-03-20T02:32:45.914Z,22.20
2019-03-20T02:33:45.905Z,22.15
2019-03-20T02:34:45.903Z,22.18
2019-03-20T02:35:51.897Z,22.20
2019-03-20T02:36:46.866Z,22.18
2019-03-20T02:37:45.864Z,22.20
2019-03-20T02:38:45.856Z,22.18
2019-03-20T02:39:45.835Z,22.17
2019-03-20T02:40:45.817Z,22.22
2019-03-20T02:41:45.845Z,22.14
2019-03-20T02:42:45.802Z,22.22
2019-03-20T02:43:45.795Z,22.20
2019-03-20T02:44:45.772Z,22.20
2019-03-20T02:45:45.758Z,22.20
2019-03-20T02:46:45.749Z,22.18
2019-03-20T02:47:45.786Z,22.22
2019-03-20T02:48:45.725Z,22.15
2019-03-20T02:49:45.714Z,22.25
2019-03-20T02:50:51.804Z,22.17
2019-03-20T02:51:45.703Z,22.15
2019-03-20T02:52:45.682Z,22.20
2019-03-20T02:53:45.707Z,22.14
2019-03-20T02:54:45.662Z,22.15
2019-03-20T02:55:45.647Z,22.23
2019-03-20T02:56:45.641Z,22.20
2019-03-20T02:57:45.628Z,22.18
2019-03-20T02:58:45.613Z,22.17
2019-03-20T02:59:45.610Z,22.17
2019-03-20T03:00:45.586Z,22.25
2019-03-20T03:01:45.579Z,22.18
2019-03-20T03:02:45.580Z,22.25
2019-03-20T03:03:45.569Z,22.17
2019-03-20T03:04:45.578Z,22.23
2019-03-20T03:05:45.535Z,22.23
2019-03-20T03:06:45.541Z,22.20
2019-03-20T03:07:45.507Z,22.22
2019-03-20T03:08:45.504Z,22.23
2019-03-20T03:09:45.483Z,22.15
2019-03-20T03:10:45.484Z,22.20
2019-03-20T03:11:45.470Z,22.18
2019-03-20T03:12:45.455Z,22.20
2019-03-20T03:13:45.441Z,22.20
2019-03-20T03:14:45.463Z,22.22
2019-03-20T03:15:45.418Z,22.20
2019-03-20T03:16:45.402Z,22.18
2019-03-20T03:17:45.408Z,22.22
2019-03-20T03:18:45.381Z,22.15
2019-03-20T03:19:45.372Z,22.18
2019-03-20T03:20:45.371Z,22.18
2019-03-20T03:21:45.354Z,22.17
2019-03-20T03:22:51.731Z,22.20
2019-03-20T03:23:45.325Z,22.22
2019-03-20T03:24:45.321Z,22.18
2019-03-20T03:25:45.345Z,22.22
2019-03-20T03:26:45.289Z,22.18
2019-03-20T03:27:45.279Z,22.22
2019-03-20T03:28:45.265Z,22.15
2019-03-20T03:29:45.260Z,22.22
2019-03-20T03:30:45.241Z,22.20
2019-03-20T03:31:45.267Z,22.20
2019-03-20T03:32:45.270Z,22.18
2019-03-20T03:33:45.206Z,22.22
2019-03-20T03:34:45.209Z,22.18
2019-03-20T03:35:45.188Z,22.20
2019-03-20T03:36:45.176Z,22.15
2019-03-20T03:37:45.178Z,22.22
2019-03-20T03:38:45.153Z,22.15
2019-03-20T03:39:45.136Z,22.20
2019-03-20T03:40:45.123Z,22.18
2019-03-20T03:41:45.126Z,22.18
2019-03-20T03:42:45.138Z,22.11
2019-03-20T03:43:45.105Z,22.17
2019-03-20T03:44:45.081Z,22.17
2019-03-20T03:45:45.074Z,22.20
2019-03-20T03:46:45.065Z,22.17
2019-03-20T03:47:45.055Z,22.18
2019-03-20T03:48:45.049Z,22.23
2019-03-20T03:49:45.021Z,22.22
2019-03-20T03:50:48.135Z,22.22
2019-03-20T03:51:44.999Z,22.17
2019-03-20T03:52:45.013Z,22.22
2019-03-20T03:53:44.987Z,22.22
2019-03-20T03:54:51.297Z,22.20
2019-03-20T03:55:44.956Z,22.18
2019-03-20T03:56:44.946Z,22.13
2019-03-20T03:57:44.937Z,22.15
2019-03-20T03:58:44.943Z,22.22
2019-03-20T03:59:44.951Z,22.22
2019-03-20T04:00:44.910Z,22.15
2019-03-20T04:01:44.885Z,22.22
2019-03-20T04:02:44.882Z,22.20
2019-03-20T04:03:44.869Z,22.15
2019-03-20T04:04:44.853Z,22.18
2019-03-20T04:05:44.850Z,22.18
2019-03-20T04:06:44.825Z,22.14
2019-03-20T04:07:44.814Z,22.25
2019-03-20T04:08:44.807Z,22.15
2019-03-20T04:09:44.799Z,22.17
2019-03-20T04:10:44.806Z,22.13
2019-03-20T04:11:44.770Z,22.14
2019-03-20T04:12:44.782Z,22.25
2019-03-20T04:13:44.750Z,22.14
2019-03-20T04:14:44.737Z,22.17
2019-03-20T04:15:44.723Z,22.20
2019-03-20T04:16:44.725Z,22.17
2019-03-20T04:17:44.772Z,22.14
2019-03-20T04:18:44.696Z,22.14
2019-03-20T04:19:44.680Z,22.07
2019-03-20T04:20:44.666Z,22.13
2019-03-20T04:21:44.741Z,22.06
2019-03-20T04:22:44.643Z,22.07
2019-03-20T04:23:44.631Z,22.07
2019-03-20T04:24:44.618Z,22.10
2019-03-20T04:25:44.606Z,22.08
2019-03-20T04:26:50.845Z,22.08
2019-03-20T04:27:44.584Z,22.11
2019-03-20T04:28:44.572Z,22.17
2019-03-20T04:29:44.621Z,22.23
2019-03-20T04:30:44.551Z,22.20
2019-03-20T04:31:44.543Z,22.20
2019-03-20T04:32:44.633Z,22.18
2019-03-20T04:33:44.518Z,22.18
2019-03-20T04:34:44.502Z,22.17
2019-03-20T04:35:44.498Z,22.23
2019-03-20T04:36:48.099Z,22.23
2019-03-20T04:37:44.467Z,22.20
2019-03-20T04:38:44.471Z,22.33
2019-03-20T04:39:44.446Z,22.28
2019-03-20T04:40:44.439Z,22.30
2019-03-20T04:41:44.421Z,22.32
2019-03-20T04:42:44.420Z,22.33
2019-03-20T04:43:44.412Z,22.25
2019-03-20T04:44:44.390Z,22.25
2019-03-20T04:45:44.394Z,22.25
2019-03-20T04:46:44.404Z,22.41
2019-03-20T04:47:44.358Z,22.26
2019-03-20T04:48:44.378Z,22.33
2019-03-20T04:49:44.334Z,22.35
2019-03-20T04:50:44.317Z,22.33
2019-03-20T04:51:44.308Z,22.28
2019-03-20T04:52:44.291Z,22.29
2019-03-20T04:53:44.284Z,22.33
2019-03-20T04:54:44.278Z,22.32
2019-03-20T04:55:44.259Z,22.39
2019-03-20T04:56:44.248Z,22.33
2019-03-20T04:57:45.766Z,22.36
2019-03-20T04:58:50.611Z,22.38
2019-03-20T04:59:44.225Z,22.36
2019-03-20T05:00:44.206Z,22.35
2019-03-20T05:01:44.192Z,22.35
2019-03-20T05:02:44.180Z,22.35
2019-03-20T05:03:44.163Z,22.38
2019-03-20T05:04:44.154Z,22.33
2019-03-20T05:05:44.185Z,22.36
2019-03-20T05:06:44.139Z,22.47
2019-03-20T05:07:44.121Z,22.41
2019-03-20T05:08:44.105Z,22.38
2019-03-20T05:09:44.098Z,22.41
2019-03-20T05:10:44.089Z,22.43
2019-03-20T05:11:44.108Z,22.43
2019-03-20T05:12:44.066Z,22.43
2019-03-20T05:13:44.049Z,22.41
2019-03-20T05:14:44.037Z,22.39
2019-03-20T05:15:44.024Z,22.39
2019-03-20T05:16:44.025Z,22.41
2019-03-20T05:17:44.037Z,22.38
2019-03-20T05:18:44.004Z,22.35
2019-03-20T05:19:43.977Z,22.33
2019-03-20T05:20:43.970Z,22.38
2019-03-20T05:21:43.958Z,22.43
2019-03-20T05:22:43.945Z,22.41
2019-03-20T05:23:43.972Z,22.39
2019-03-20T05:24:43.921Z,22.38
2019-03-20T05:25:43.913Z,22.36
2019-03-20T05:26:43.898Z,22.36
2019-03-20T05:27:43.886Z,22.36
2019-03-20T05:28:43.878Z,22.41
2019-03-20T05:29:43.899Z,22.43
2019-03-20T05:30:49.943Z,22.35
2019-03-20T05:31:43.838Z,22.39
2019-03-20T05:32:43.831Z,22.44
2019-03-20T05:33:43.821Z,22.43
2019-03-20T05:34:43.806Z,22.43
2019-03-20T05:35:43.829Z,22.50
2019-03-20T05:36:43.790Z,22.54
2019-03-20T05:37:43.780Z,22.54
2019-03-20T05:38:43.765Z,22.51
2019-03-20T05:39:43.754Z,22.48
2019-03-20T05:40:43.737Z,22.54
2019-03-20T05:41:43.729Z,22.59
2019-03-20T05:42:43.714Z,22.54
2019-03-20T05:43:43.698Z,22.55
2019-03-20T05:44:43.689Z,22.51
2019-03-20T05:45:43.694Z,22.50
2019-03-20T05:46:43.667Z,22.55
2019-03-20T05:47:43.659Z,22.55
2019-03-20T05:48:43.647Z,22.47
2019-03-20T05:49:43.629Z,22.55
2019-03-20T05:50:43.620Z,22.48
2019-03-20T05:51:43.615Z,22.51
2019-03-20T05:52:43.602Z,22.50
2019-03-20T05:53:43.587Z,22.45
2019-03-20T05:54:43.572Z,22.50
2019-03-20T05:55:43.566Z,22.48
2019-03-20T05:56:43.550Z,22.45
2019-03-20T05:57:43.549Z,22.51
2019-03-20T05:58:43.531Z,22.43
2019-03-20T05:59:43.516Z,22.44
2019-03-20T06:00:43.512Z,22.39
2019-03-20T06:01:43.497Z,22.39
2019-03-20T06:02:49.876Z,22.41
2019-03-20T06:03:43.469Z,22.44
2019-03-20T06:04:43.467Z,22.50
2019-03-20T06:05:43.447Z,22.48
2019-03-20T06:06:43.442Z,22.51
2019-03-20T06:07:43.424Z,22.53
2019-03-20T06:08:43.429Z,22.41
2019-03-20T06:09:43.400Z,22.51
2019-03-20T06:10:43.397Z,22.47
2019-03-20T06:11:43.378Z,22.47
2019-03-20T06:12:43.372Z,22.44
2019-03-20T06:13:43.394Z,22.38
2019-03-20T06:14:43.349Z,22.32
2019-03-20T06:15:43.330Z,22.33
2019-03-20T06:16:43.325Z,22.29
2019-03-20T06:17:43.315Z,22.33
2019-03-20T06:18:43.295Z,22.22
2019-03-20T06:19:43.305Z,22.28
2019-03-20T06:20:43.283Z,22.22
2019-03-20T06:21:43.264Z,22.18
2019-03-20T06:22:43.252Z,22.17
2019-03-20T06:23:43.243Z,22.17
2019-03-20T06:24:43.233Z,22.20
2019-03-20T06:25:43.253Z,22.23
2019-03-20T06:26:43.208Z,22.20
2019-03-20T06:27:43.202Z,22.20
2019-03-20T06:28:43.179Z,22.20
2019-03-20T06:29:43.174Z,22.20
2019-03-20T06:30:43.162Z,22.15
2019-03-20T06:31:43.217Z,22.23
2019-03-20T06:32:43.141Z,22.18
2019-03-20T06:33:43.131Z,22.36
2019-03-20T06:34:49.509Z,22.26
2019-03-20T06:35:43.109Z,22.25
2019-03-20T06:36:43.090Z,22.32
2019-03-20T06:37:43.082Z,22.22
2019-03-20T06:38:43.067Z,22.28
2019-03-20T06:39:43.059Z,22.28
2019-03-20T06:40:43.043Z,22.26
2019-03-20T06:41:43.036Z,22.20
2019-03-20T06:42:43.398Z,22.28
2019-03-20T06:43:43.010Z,22.23
2019-03-20T06:44:42.996Z,22.32
2019-03-20T06:45:42.988Z,22.25
2019-03-20T06:46:42.987Z,22.32
2019-03-20T06:47:42.967Z,22.28
2019-03-20T06:48:42.959Z,22.29
2019-03-20T06:49:42.936Z,22.29
2019-03-20T06:50:42.926Z,22.43
2019-03-20T06:51:42.911Z,22.43
2019-03-20T06:52:42.904Z,22.36
2019-03-20T06:53:42.902Z,22.39
2019-03-20T06:54:42.880Z,22.43
2019-03-20T06:55:42.866Z,22.38
2019-03-20T06:56:42.855Z,22.44
2019-03-20T06:57:42.842Z,22.39
2019-03-20T06:58:42.870Z,22.38
2019-03-20T06:59:42.825Z,22.43
2019-03-20T07:00:42.813Z,22.39
2019-03-20T07:01:42.798Z,22.33
2019-03-20T07:02:42.790Z,22.43
2019-03-20T07:03:42.777Z,22.41
2019-03-20T07:04:42.774Z,22.39
2019-03-20T07:05:42.753Z,22.39
2019-03-20T07:06:48.832Z,22.32
2019-03-20T07:07:44.374Z,22.36
2019-03-20T07:08:42.722Z,22.23
2019-03-20T07:09:42.726Z,22.22
2019-03-20T07:10:42.692Z,22.30
2019-03-20T07:11:42.678Z,22.26
2019-03-20T07:12:42.674Z,22.22
2019-03-20T07:13:42.657Z,22.33
2019-03-20T07:14:42.647Z,22.36
2019-03-20T07:15:42.683Z,22.25
2019-03-20T07:16:42.622Z,22.36
2019-03-20T07:17:42.610Z,22.30
2019-03-20T07:18:42.601Z,22.30
2019-03-20T07:19:42.595Z,22.33
2019-03-20T07:20:42.579Z,22.29
2019-03-20T07:21:42.601Z,22.22
2019-03-20T07:22:42.554Z,22.28
2019-03-20T07:23:42.550Z,22.35
2019-03-20T07:24:42.529Z,22.30
2019-03-20T07:25:42.519Z,22.29
2019-03-20T07:26:42.509Z,22.33
2019-03-20T07:27:42.517Z,22.25
2019-03-20T07:28:42.490Z,22.23
2019-03-20T07:29:42.473Z,22.30
2019-03-20T07:30:42.466Z,22.23
2019-03-20T07:31:42.457Z,22.33
2019-03-20T07:32:42.442Z,22.22
2019-03-20T07:33:42.439Z,22.32
2019-03-20T07:34:42.422Z,22.29
2019-03-20T07:35:42.411Z,22.18
2019-03-20T07:36:42.397Z,22.13
2019-03-20T07:37:42.387Z,22.15
2019-03-20T07:38:48.968Z,22.17
2019-03-20T07:39:42.361Z,22.23
2019-03-20T07:40:42.358Z,22.17
2019-03-20T07:41:42.341Z,22.20
2019-03-20T07:42:42.378Z,22.20
2019-03-20T07:43:42.320Z,22.20
2019-03-20T07:44:42.311Z,22.18
2019-03-20T07:45:42.294Z,22.22
2019-03-20T07:46:42.282Z,22.20
2019-03-20T07:47:42.326Z,22.23
2019-03-20T07:48:42.257Z,22.20
2019-03-20T07:49:42.262Z,22.22
2019-03-20T07:50:42.235Z,22.18
2019-03-20T07:51:42.218Z,22.29
2019-03-20T07:52:42.209Z,22.28
2019-03-20T07:53:42.197Z,22.30
2019-03-20T07:54:42.183Z,22.25
2019-03-20T07:55:42.181Z,22.30
2019-03-20T07:56:42.166Z,22.15
2019-03-20T07:57:42.160Z,22.22
2019-03-20T07:58:42.135Z,22.23
2019-03-20T07:59:42.122Z,22.18
2019-03-20T08:00:42.157Z,22.20
2019-03-20T08:01:42.106Z,22.20
2019-03-20T08:02:42.090Z,22.23
2019-03-20T08:03:42.084Z,22.18
2019-03-20T08:04:42.064Z,22.22
2019-03-20T08:05:42.054Z,22.22
2019-03-20T08:06:42.080Z,22.22
2019-03-20T08:07:42.032Z,22.29
2019-03-20T08:08:42.021Z,22.23
2019-03-20T08:09:42.012Z,22.22
2019-03-20T08:10:48.391Z,22.20
2019-03-20T08:11:41.998Z,22.35
2019-03-20T08:12:41.982Z,22.23
2019-03-20T08:13:41.967Z,22.26
2019-03-20T08:14:41.954Z,22.28
2019-03-20T08:15:41.944Z,22.39
2019-03-20T08:16:41.929Z,22.35
2019-03-20T08:17:41.926Z,22.25
2019-03-20T08:18:41.908Z,22.26
2019-03-20T08:19:41.891Z,22.32
2019-03-20T08:20:41.888Z,22.32
2019-03-20T08:21:41.871Z,22.35
2019-03-20T08:22:41.897Z,22.26
2019-03-20T08:23:41.852Z,22.26
2019-03-20T08:24:41.837Z,22.35
2019-03-20T08:25:41.847Z,22.18
2019-03-20T08:26:41.818Z,22.20
2019-03-20T08:27:41.805Z,22.18
2019-03-20T08:28:41.811Z,22.18
2019-03-20T08:29:41.798Z,22.29
2019-03-20T08:30:41.763Z,22.33
2019-03-20T08:31:41.759Z,22.25
2019-03-20T08:32:41.749Z,22.22
2019-03-20T08:33:41.734Z,22.20
2019-03-20T08:34:41.740Z,22.04
2019-03-20T08:35:41.711Z,22.07
2019-03-20T08:36:41.702Z,22.06
2019-03-20T08:37:41.684Z,22.06
2019-03-20T08:38:41.679Z,22.02
2019-03-20T08:39:41.665Z,22.04
2019-03-20T08:40:41.660Z,22.13
2019-03-20T08:41:41.636Z,22.13
2019-03-20T08:42:48.023Z,22.13
2019-03-20T08:43:41.621Z,22.06
2019-03-20T08:44:41.619Z,22.10
2019-03-20T08:45:41.591Z,21.96
2019-03-20T08:46:41.583Z,22.04
2019-03-20T08:47:41.567Z,22.02
2019-03-20T08:48:41.564Z,21.99
2019-03-20T08:49:41.732Z,21.98
2019-03-20T08:50:41.580Z,22.06
2019-03-20T08:51:41.519Z,21.99
2019-03-20T08:52:41.515Z,22.06
2019-03-20T08:53:41.505Z,22.04
2019-03-20T08:54:41.487Z,22.02
2019-03-20T08:55:41.487Z,21.98
2019-03-20T08:56:41.461Z,21.98
2019-03-20T08:57:41.454Z,21.95
2019-03-20T08:58:41.439Z,21.91
2019-03-20T08:59:41.432Z,21.92
2019-03-20T09:00:41.458Z,21.88
2019-03-20T09:01:41.409Z,21.95
2019-03-20T09:02:41.395Z,21.89
2019-03-20T09:03:41.388Z,21.85
2019-03-20T09:04:41.368Z,21.85
2019-03-20T09:05:41.364Z,21.93
2019-03-20T09:06:41.390Z,21.79
2019-03-20T09:07:47.240Z,21.75
2019-03-20T09:08:42.327Z,21.73
2019-03-20T09:09:41.314Z,21.72
2019-03-20T09:10:41.303Z,21.72
2019-03-20T09:11:41.295Z,21.75
2019-03-20T09:12:41.284Z,21.72
2019-03-20T09:13:41.266Z,21.67
2019-03-20T09:14:47.347Z,21.73
2019-03-20T09:15:41.239Z,21.66
2019-03-20T09:16:41.236Z,21.66
2019-03-20T09:17:41.230Z,21.72
2019-03-20T09:18:41.209Z,21.72
2019-03-20T09:19:41.200Z,21.76
2019-03-20T09:20:41.186Z,21.91
2019-03-20T09:21:41.173Z,21.88
2019-03-20T09:22:41.203Z,21.92
2019-03-20T09:23:41.150Z,21.82
2019-03-20T09:24:41.139Z,21.88
2019-03-20T09:25:41.127Z,21.91
2019-03-20T09:26:41.117Z,21.91
2019-03-20T09:27:41.106Z,21.73
2019-03-20T09:28:41.122Z,21.80
2019-03-20T09:29:41.297Z,21.82
2019-03-20T09:30:41.067Z,21.76
2019-03-20T09:31:41.059Z,21.80
2019-03-20T09:32:41.046Z,21.77
2019-03-20T09:33:41.033Z,21.77
2019-03-20T09:34:41.071Z,21.89
2019-03-20T09:35:41.011Z,21.88
2019-03-20T09:36:43.269Z,21.83
2019-03-20T09:37:51.325Z,21.91
2019-03-20T09:38:43.799Z,21.82
2019-03-20T09:39:40.967Z,21.91
2019-03-20T09:40:40.954Z,21.91
2019-03-20T09:41:40.940Z,21.80
2019-03-20T09:42:40.923Z,21.82
2019-03-20T09:43:40.911Z,21.88
2019-03-20T09:44:40.905Z,21.85
2019-03-20T09:45:40.897Z,21.77
2019-03-20T09:46:47.486Z,21.82
2019-03-20T09:47:40.866Z,21.88
2019-03-20T09:48:40.854Z,21.85
2019-03-20T09:49:40.849Z,21.88
2019-03-20T09:50:40.834Z,21.91
2019-03-20T09:51:40.861Z,21.93
2019-03-20T09:52:40.809Z,21.85
2019-03-20T09:53:40.800Z,21.83
2019-03-20T09:54:40.783Z,21.92
2019-03-20T09:55:40.771Z,21.92
2019-03-20T09:56:40.760Z,21.92
2019-03-20T09:57:40.755Z,21.93
2019-03-20T09:58:40.741Z,21.91
2019-03-20T09:59:40.725Z,21.91
2019-03-20T10:00:40.722Z,21.92
2019-03-20T10:01:40.701Z,21.92
2019-03-20T10:02:40.732Z,21.92
2019-03-20T10:03:40.681Z,21.95
2019-03-20T10:04:40.667Z,21.96
2019-03-20T10:05:40.656Z,21.91
2019-03-20T10:06:40.645Z,22.02
2019-03-20T10:07:40.630Z,22.00
2019-03-20T10:08:40.660Z,22.08
2019-03-20T10:09:40.608Z,22.06
2019-03-20T10:10:40.601Z,21.99
2019-03-20T10:11:40.593Z,22.07
2019-03-20T10:12:40.574Z,22.08
2019-03-20T10:13:40.564Z,22.00
2019-03-20T10:14:40.564Z,22.08
2019-03-20T10:15:40.540Z,22.08
2019-03-20T10:16:40.531Z,22.06
2019-03-20T10:17:40.515Z,22.20
2019-03-20T10:18:46.601Z,22.17
2019-03-20T10:19:40.533Z,22.29
2019-03-20T10:20:40.482Z,22.32
2019-03-20T10:21:40.474Z,22.30
2019-03-20T10:22:40.466Z,22.39
2019-03-20T10:23:40.451Z,22.36
2019-03-20T10:24:40.439Z,22.44
2019-03-20T10:25:44.511Z,22.38
2019-03-20T10:26:40.416Z,22.43
2019-03-20T10:27:40.401Z,22.32
2019-03-20T10:28:40.393Z,22.28
2019-03-20T10:29:40.384Z,22.30
2019-03-20T10:30:40.404Z,22.22
2019-03-20T10:31:40.364Z,22.29
2019-03-20T10:32:40.343Z,22.30
2019-03-20T10:33:40.331Z,22.28
2019-03-20T10:34:40.324Z,22.26
2019-03-20T10:35:49.923Z,22.32
2019-03-20T10:36:41.345Z,22.32
2019-03-20T10:37:40.287Z,22.39
2019-03-20T10:38:40.318Z,22.38
2019-03-20T10:39:40.263Z,22.35
2019-03-20T10:40:40.251Z,22.38
2019-03-20T10:41:40.247Z,22.43
2019-03-20T10:42:40.254Z,22.41
2019-03-20T10:43:40.214Z,22.45
2019-03-20T10:44:40.209Z,22.45
2019-03-20T10:45:40.209Z,22.50
2019-03-20T10:46:40.183Z,22.44
2019-03-20T10:47:40.174Z,22.48
2019-03-20T10:48:40.209Z,22.51
2019-03-20T10:49:40.148Z,22.48
2019-03-20T10:50:46.533Z,22.44
2019-03-20T10:51:40.125Z,22.47
2019-03-20T10:52:40.114Z,22.51
2019-03-20T10:53:40.105Z,22.48
2019-03-20T10:54:40.095Z,22.47
2019-03-20T10:55:40.078Z,22.45
2019-03-20T10:56:40.074Z,22.50
2019-03-20T10:57:40.058Z,22.47
2019-03-20T10:58:40.045Z,22.45
2019-03-20T10:59:40.052Z,22.50
2019-03-20T11:00:40.854Z,22.43
2019-03-20T11:01:42.833Z,22.36
2019-03-20T11:02:39.998Z,22.41
2019-03-20T11:03:39.986Z,22.39
2019-03-20T11:04:39.973Z,22.44
2019-03-20T11:05:40.002Z,22.50
2019-03-20T11:06:39.953Z,22.45
2019-03-20T11:07:39.938Z,22.57
2019-03-20T11:08:39.929Z,22.48
2019-03-20T11:09:39.916Z,22.54
2019-03-20T11:10:39.908Z,22.48
2019-03-20T11:11:39.930Z,22.38
2019-03-20T11:12:39.885Z,22.41
2019-03-20T11:13:39.877Z,22.28
2019-03-20T11:14:39.861Z,22.32
2019-03-20T11:15:39.850Z,22.30
2019-03-20T11:16:39.847Z,22.23
2019-03-20T11:17:39.852Z,22.36
2019-03-20T11:18:39.819Z,22.35
2019-03-20T11:19:39.816Z,22.30
2019-03-20T11:20:39.798Z,22.43
2019-03-20T11:21:39.784Z,22.44
2019-03-20T11:22:46.537Z,22.48
2019-03-20T11:23:39.755Z,22.43
2019-03-20T11:24:39.759Z,22.44
2019-03-20T11:25:39.737Z,22.44
2019-03-20T11:26:39.732Z,22.43
2019-03-20T11:27:39.711Z,22.38
2019-03-20T11:28:39.742Z,22.39
2019-03-20T11:29:39.691Z,22.38
2019-03-20T11:30:39.680Z,22.26
2019-03-20T11:31:39.672Z,22.25
2019-03-20T11:32:40.103Z,22.28
2019-03-20T11:33:39.642Z,22.18
2019-03-20T11:34:39.640Z,22.15
2019-03-20T11:35:41.482Z,22.18
2019-03-20T11:36:39.612Z,22.17
2019-03-20T11:37:39.595Z,22.14
2019-03-20T11:38:39.589Z,22.25
2019-03-20T11:39:39.599Z,22.26
2019-03-20T11:40:39.559Z,22.29
2019-03-20T11:41:39.571Z,22.28
2019-03-20T11:42:40.846Z,22.25
2019-03-20T11:43:39.525Z,22.28
2019-03-20T11:44:39.517Z,22.23
2019-03-20T11:45:39.543Z,22.32
2019-03-20T11:46:39.497Z,22.28
2019-03-20T11:47:39.480Z,22.36
2019-03-20T11:48:39.477Z,22.29
2019-03-20T11:49:39.463Z,22.25
2019-03-20T11:50:39.454Z,22.23
2019-03-20T11:51:39.448Z,22.23
2019-03-20T11:52:39.428Z,22.23
2019-03-20T11:53:39.418Z,22.33
2019-03-20T11:54:45.501Z,22.23
2019-03-20T11:55:39.391Z,22.36
2019-03-20T11:56:39.422Z,22.25
2019-03-20T11:57:39.365Z,22.25
2019-03-20T11:58:39.361Z,22.41
2019-03-20T11:59:39.342Z,22.32
2019-03-20T12:00:39.334Z,22.28
2019-03-20T12:01:39.325Z,22.33
2019-03-20T12:02:39.321Z,22.17
2019-03-20T12:03:39.295Z,22.13
2019-03-20T12:04:39.285Z,22.17
2019-03-20T12:05:39.278Z,22.02
2019-03-20T12:06:39.263Z,22.00
2019-03-20T12:07:39.293Z,21.91
2019-03-20T12:08:39.244Z,21.95
2019-03-20T12:09:41.264Z,21.88
2019-03-20T12:10:39.213Z,21.88
2019-03-20T12:11:45.726Z,21.91
2019-03-20T12:12:40.199Z,21.92
2019-03-20T12:13:39.181Z,21.88
2019-03-20T12:14:39.204Z,21.89
2019-03-20T12:15:39.155Z,21.77
2019-03-20T12:16:39.148Z,21.89
2019-03-20T12:17:39.133Z,21.95
2019-03-20T12:18:39.122Z,21.92
2019-03-20T12:19:44.806Z,21.92
2019-03-20T12:20:40.144Z,21.91
2019-03-20T12:21:39.090Z,21.85
2019-03-20T12:22:39.075Z,22.07
2019-03-20T12:23:39.070Z,21.95
2019-03-20T12:24:39.097Z,21.93
2019-03-20T12:25:39.041Z,21.95
2019-03-20T12:26:45.598Z,21.99
2019-03-20T12:27:39.023Z,22.04
2019-03-20T12:28:39.006Z,22.00
2019-03-20T12:29:38.999Z,22.08
2019-03-20T12:30:38.984Z,22.02
2019-03-20T12:31:38.981Z,22.00
2019-03-20T12:32:39.000Z,22.00
2019-03-20T12:33:38.951Z,21.98
2019-03-20T12:34:38.942Z,21.99
2019-03-20T12:35:38.929Z,22.04
2019-03-20T12:36:38.914Z,21.93
2019-03-20T12:37:38.901Z,21.99
2019-03-20T12:38:38.907Z,21.99
2019-03-20T12:39:38.884Z,22.06
2019-03-20T12:40:38.866Z,21.98
2019-03-20T12:41:38.856Z,22.02
2019-03-20T12:42:38.883Z,22.07
2019-03-20T12:43:38.831Z,22.13
2019-03-20T12:44:38.826Z,22.11
2019-03-20T12:45:38.813Z,22.17
2019-03-20T12:46:41.825Z,22.13
2019-03-20T12:47:38.797Z,22.22
2019-03-20T12:48:38.819Z,22.14
2019-03-20T12:49:38.793Z,22.20
2019-03-20T12:50:38.752Z,22.15
2019-03-20T12:51:38.738Z,22.20
2019-03-20T12:52:38.736Z,22.15